Kezdőlap
METAR-TAF:

METAR-TAF

Repülőterek :

Lichinga, Mozambik

földrajzi szélesség: 13-18S, földrajzi hosszúság: 035-14E, magasság: 1364 m

Jelenlegi meteorológiai megfigyelések

A jelentés 52 perccel ezelõtt készült, 10:00 UTC
Kelet-délkeleti szél 6 kt
Hőmérséklet 25°C
Páratartalom 54%
Légköri nyomás 1021 hPa
Látótávolság 10 km, vagy több
Szórványos felhőzet 2000 lábon

METAR: FQLC 231000Z 11006KT 9999 SCT020 25/15 Q1021

Idő: 12:52 (10:52 UTC)

Előrejelzés

A jelentés 6 órával és 52 perccel ezelõtt készült, 04:00 UTC
Az előrejelzés 23-én 06 óra UTC és 24-én 06 óra UTC között érvényes
Keleti szél 6 kt
Látótávolság 10 km, vagy több
Szakadozott felhőzet 2000 lábon
23-én 18 óra UTC és 23-én 20 óra UTC között fokozatosan kialakuló
Különbözõ irányokból fújó szél 3 kt

TAF: FQLC 230400Z 2306/2406 10006KT 9999 BKN020 TX27/2313Z TN14/2402Z BECMG 2318/2320 VRB03KT

Meteorológiai megfigyelések és előrejelzések több, mint 4000 repülőtéren (METAR és TAF jelentéseket).

A térképen piros és sárga pontok jelzik az elérhető meteorológiai állomásokat.

Mozgassa az egeret a pont fölött, hogy megjelenjen az állomás neve.

Azután kattintson az időjárási megfigyelések és előrejelzések megtekintéséhez.

A térkép megváltoztatása: kattintson a fekete keresztel jelölt zöld gombra ráközelítéshez, a vonallal jelölt zöld gombra távolításhoz, vagy a zöld nyilakra a szomszédos térképek eléréséhez.


METAR-TAF: